Time;durP1;ratioP1;P1;durP2;ratioP2;P2;SDS_P1;SDS_P2;PMS_P1;PMS_P2;Temp;Humidity;BMP_temperature;BMP_pressure;BME280_temperature;BME280_humidity;BME280_pressure;Samples;Min_cycle;Max_cycle;Signal;HPM_P1;HPM_P2
2021/04/10 01:45:50;;;;;;;1.80;0.98;;;21.70;50.60;;;;;;5063276;27;20460;-67
2021/04/10 01:48:17;;;;;;;3.55;1.17;;;21.90;46.60;;;;;;5016646;28;20211;-70
2021/04/10 01:50:44;;;;;;;11.07;1.80;;;22.00;51.50;;;;;;5018560;28;20440;-73
2021/04/10 01:53:11;;;;;;;2.90;0.95;;;23.00;45.60;;;;;;5028139;28;20509;-68
2021/04/10 01:55:39;;;;;;;3.05;1.05;;;23.30;42.30;;;;;;5015910;28;20469;-73
2021/04/10 01:58:06;;;;;;;1.77;0.88;;;23.20;41.90;;;;;;5046966;28;20031;-70
2021/04/10 02:00:34;;;;;;;1.65;0.98;;;23.20;42.40;;;;;;5043702;28;20108;-73
2021/04/10 02:03:02;;;;;;;3.83;0.98;;;23.40;41.50;;;;;;5037060;28;20029;-72
2021/04/10 02:05:29;;;;;;;3.78;1.17;;;23.60;39.80;;;;;;5018171;28;20574;-70
2021/04/10 02:07:57;;;;;;;8.85;1.67;;;23.80;42.10;;;;;;5018791;28;20484;-66
2021/04/10 02:10:25;;;;;;;4.32;1.17;;;24.00;40.30;;;;;;5049521;28;20489;-69
2021/04/10 02:12:54;;;;;;;3.67;1.55;;;24.10;39.10;;;;;;5035023;28;20071;-72
2021/04/10 02:15:22;;;;;;;4.57;1.52;;;24.20;39.20;;;;;;5030120;28;20024;-72
2021/04/10 02:17:49;;;;;;;3.13;1.33;;;24.40;38.90;;;;;;5033583;28;20523;-67
2021/04/10 02:20:17;;;;;;;2.20;0.90;;;24.50;41.00;;;;;;5032293;28;20029;-68
2021/04/10 02:22:51;;;;;;;3.15;0.77;;;24.60;38.90;;;;;;5017289;28;20037;-70
2021/04/10 02:25:19;;;;;;;3.72;1.33;;;24.70;37.90;;;;;;5049411;28;20053;-68
2021/04/10 02:27:47;;;;;;;5.40;1.00;;;25.00;38.90;;;;;;5071703;28;20051;-69
2021/04/10 02:30:15;;;;;;;2.50;1.10;;;24.80;37.50;;;;;;5048175;28;20549;-70
2021/04/10 02:32:59;;;;;;;1.92;1.00;;;24.70;38.10;;;;;;5025586;28;20148;-69
2021/04/10 02:35:39;;;;;;;3.67;1.40;;;24.70;38.70;;;;;;5071925;28;20036;-71
2021/04/10 02:38:07;;;;;;;1.77;0.80;;;24.90;38.00;;;;;;5047788;28;20029;-70
2021/04/10 02:40:40;;;;;;;3.08;0.90;;;24.90;37.20;;;;;;5059631;28;20083;-69
2021/04/10 02:43:08;;;;;;;6.90;1.35;;;24.90;38.80;;;;;;5045225;28;20028;-70
2021/04/10 02:45:35;;;;;;;8.10;1.80;;;25.10;38.30;;;;;;5088446;23;20037;-75
2021/04/10 02:48:11;;;;;;;3.42;1.30;;;25.00;37.00;;;;;;5013672;28;20037;-72
2021/04/10 02:50:38;;;;;;;12.25;2.35;;;24.90;36.60;;;;;;5018336;28;20148;-73
2021/04/10 02:53:06;;;;;;;8.15;1.42;;;25.10;36.60;;;;;;5030662;28;20037;-70
2021/04/10 02:55:39;;;;;;;4.93;1.50;;;25.10;35.90;;;;;;5039821;28;20024;-72
2021/04/10 02:58:11;;;;;;;5.90;1.55;;;24.90;35.80;;;;;;5011206;28;20033;-71
2021/04/10 03:00:41;;;;;;;6.88;1.88;;;24.70;37.70;;;;;;5017479;28;20037;-70
2021/04/10 03:03:08;;;;;;;2.50;0.90;;;24.70;37.60;;;;;;5017458;28;20415;-73
2021/04/10 03:05:37;;;;;;;4.43;1.10;;;24.70;36.20;;;;;;5035169;28;20026;-70
2021/04/10 03:08:04;;;;;;;3.58;0.68;;;24.60;37.20;;;;;;5022871;28;20112;-73
2021/04/10 03:10:35;;;;;;;2.17;0.80;;;24.50;37.00;;;;;;5005310;28;20386;-70
2021/04/10 03:13:03;;;;;;;3.22;0.80;;;24.60;35.70;;;;;;5017769;28;20083;-72
2021/04/10 03:15:31;;;;;;;9.98;2.03;;;24.80;36.80;;;;;;5017004;28;20594;-71
2021/04/10 03:17:58;;;;;;;27.30;3.47;;;24.80;36.60;;;;;;5021712;28;20479;-70
2021/04/10 03:20:28;;;;;;;9.82;1.88;;;24.70;35.80;;;;;;5021666;28;20037;-69
2021/04/10 03:22:58;;;;;;;7.60;1.58;;;24.70;35.70;;;;;;5028160;28;20118;-71
2021/04/10 03:25:28;;;;;;;5.50;1.60;;;24.70;36.70;;;;;;5028995;28;20017;-68
2021/04/10 03:27:58;;;;;;;5.30;1.15;;;25.00;36.50;;;;;;5025715;28;20017;-67
2021/04/10 03:30:29;;;;;;;8.95;1.60;;;24.90;36.00;;;;;;5024087;28;20018;-73
2021/04/10 03:32:59;;;;;;;4.05;0.85;;;25.10;36.10;;;;;;5020476;28;20108;-68
2021/04/10 03:35:29;;;;;;;10.00;1.38;;;25.20;37.20;;;;;;5030670;28;20017;-72
2021/04/10 03:37:59;;;;;;;3.55;1.10;;;25.20;36.00;;;;;;5019945;28;20080;-66
2021/04/10 03:40:30;;;;;;;9.30;1.65;;;25.30;37.10;;;;;;5016611;28;20021;-68
2021/04/10 03:42:57;;;;;;;10.00;2.33;;;25.30;35.70;;;;;;5031399;28;20025;-68
2021/04/10 03:45:24;;;;;;;4.95;1.10;;;25.00;37.10;;;;;;5029016;28;20032;-67
2021/04/10 03:47:55;;;;;;;1.90;1.00;;;25.30;37.60;;;;;;5036753;28;20479;-67
2021/04/10 03:50:23;;;;;;;3.17;0.75;;;25.50;34.90;;;;;;5037634;28;20032;-68
2021/04/10 03:52:53;;;;;;;2.75;1.02;;;25.20;36.60;;;;;;5036118;28;20067;-69
2021/04/10 03:55:25;;;;;;;2.63;1.13;;;25.10;36.50;;;;;;5032340;28;20083;-67
2021/04/10 03:57:53;;;;;;;3.38;1.08;;;25.30;37.10;;;;;;5007617;28;20138;-72
2021/04/10 04:00:21;;;;;;;4.03;1.20;;;25.40;36.10;;;;;;4999251;28;20148;-73
2021/04/10 04:02:49;;;;;;;6.90;1.42;;;25.40;34.60;;;;;;5037418;28;20029;-69
2021/04/10 04:05:22;;;;;;;7.00;1.50;;;25.20;36.10;;;;;;5033998;28;20021;-70
2021/04/10 04:07:52;;;;;;;7.82;1.15;;;25.20;36.40;;;;;;5042553;28;20033;-70
2021/04/10 04:10:19;;;;;;;2.85;1.27;;;25.60;36.70;;;;;;5029890;28;20384;-67
2021/04/10 04:12:49;;;;;;;3.65;1.02;;;25.60;35.60;;;;;;5034186;28;20021;-68
2021/04/10 04:15:17;;;;;;;3.13;0.93;;;25.60;36.90;;;;;;5003407;28;20057;-67
2021/04/10 04:17:45;;;;;;;5.60;0.98;;;25.40;36.00;;;;;;5044807;28;20005;-69
2021/04/10 04:20:23;;;;;;;9.80;1.67;;;25.30;36.10;;;;;;5009041;28;20713;-70
2021/04/10 04:22:53;;;;;;;3.40;1.40;;;25.30;37.00;;;;;;5022853;28;20068;-70
2021/04/10 04:25:44;;;;;;;4.05;0.80;;;25.40;36.50;;;;;;5021707;28;20138;-73
2021/04/10 04:28:35;;;;;;;1.10;0.80;;;25.00;38.40;;;;;;5011311;28;20028;-74
2021/04/10 04:31:24;;;;;;;;;;;;;;;;;;;;;
2021/04/10 04:33:58;;;;;;;3.13;1.00;;;24.80;36.20;;;;;;5038149;28;20035;-73
2021/04/10 04:36:36;;;;;;;5.10;3.05;;;25.20;36.40;;;;;;5004064;28;20031;-68
2021/04/10 04:39:10;;;;;;;2.90;1.15;;;25.60;37.00;;;;;;5018850;28;20032;-72
2021/04/10 04:41:56;;;;;;;4.05;0.75;;;25.60;36.10;;;;;;5004279;28;20145;-73
2021/04/10 04:44:29;;;;;;;4.45;1.00;;;25.80;35.50;;;;;;5015806;28;20040;-70
2021/04/10 04:47:18;;;;;;;2.10;0.93;;;25.60;36.30;;;;;;5034049;28;20045;-71
2021/04/10 04:49:58;;;;;;;13.73;1.65;;;25.40;37.60;;;;;;5039101;28;20110;-72
2021/04/10 04:52:31;;;;;;;3.72;1.05;;;25.40;36.70;;;;;;5041290;28;20021;-72
2021/04/10 04:55:03;;;;;;;4.97;1.20;;;25.00;36.70;;;;;;5020835;28;20029;-70
2021/04/10 04:57:31;;;;;;;4.30;0.90;;;24.90;37.30;;;;;;5022983;28;20126;-73
2021/04/10 05:00:03;;;;;;;1.77;0.80;;;25.20;37.70;;;;;;5018968;28;20033;-67
2021/04/10 05:02:30;;;;;;;2.53;0.73;;;25.30;37.80;;;;;;5037088;28;20393;-70
2021/04/10 05:04:57;;;;;;;5.85;1.10;;;25.20;36.70;;;;;;5040860;28;20029;-70
2021/04/10 05:07:25;;;;;;;4.50;1.00;;;25.10;37.20;;;;;;5038587;28;20036;-76
2021/04/10 05:09:53;;;;;;;3.08;1.10;;;25.20;38.00;;;;;;5032620;28;20476;-69
2021/04/10 05:12:23;;;;;;;8.57;1.17;;;25.40;38.30;;;;;;5025000;28;20745;-65
2021/04/10 05:14:50;;;;;;;4.53;1.38;;;25.30;36.70;;;;;;5025804;28;20041;-68
2021/04/10 05:17:18;;;;;;;14.02;1.88;;;24.90;36.50;;;;;;5041574;28;20513;-69
2021/04/10 05:19:47;;;;;;;15.55;2.70;;;24.70;37.00;;;;;;5006416;28;20025;-70
2021/04/10 05:22:19;;;;;;;4.47;0.90;;;24.70;38.20;;;;;;5008362;28;20028;-67
2021/04/10 05:24:48;;;;;;;11.75;1.50;;;24.60;37.30;;;;;;5047468;28;20027;-72
2021/04/10 05:27:20;;;;;;;3.67;0.95;;;24.60;38.90;;;;;;5011252;28;20034;-68
2021/04/10 05:29:48;;;;;;;;;;;24.40;37.10;;;;;;5021336;28;20029;-68
2021/04/10 05:32:22;;;;;;;5.55;1.73;;;23.80;38.50;;;;;;5023238;28;19912;-69
2021/04/10 05:34:50;;;;;;;3.47;1.02;;;23.50;39.00;;;;;;5037800;28;20484;-71
2021/04/10 05:37:21;;;;;;;2.90;0.98;;;23.30;39.90;;;;;;5016627;28;20021;-68
2021/04/10 05:39:57;;;;;;;9.60;2.50;;;23.10;40.40;;;;;;4998288;28;20033;-67
2021/04/10 05:42:25;;;;;;;8.70;1.25;;;23.00;40.10;;;;;;5041186;28;20021;-68
2021/04/10 05:44:53;;;;;;;3.92;1.05;;;22.80;40.50;;;;;;5040824;28;20076;-68
2021/04/10 05:47:20;;;;;;;1.85;0.93;;;23.00;41.00;;;;;;5028314;28;20046;-72
2021/04/10 05:49:47;;;;;;;4.20;1.02;;;22.90;41.80;;;;;;5033219;28;20021;-74
2021/04/10 05:52:14;;;;;;;2.60;1.30;;;22.90;41.50;;;;;;5035226;28;20033;-74
2021/04/10 05:54:42;;;;;;;4.25;1.25;;;22.70;42.70;;;;;;5035214;28;20491;-71
2021/04/10 05:57:09;;;;;;;2.30;0.82;;;22.30;42.50;;;;;;5033530;28;20075;-70
2021/04/10 05:59:36;;;;;;;4.70;1.95;;;22.10;43.00;;;;;;5032556;28;20503;-72
2021/04/10 06:02:07;;;;;;;5.05;2.10;;;22.30;42.80;;;;;;5024144;28;20031;-69
2021/04/10 06:04:38;;;;;;;2.03;1.08;;;22.60;42.30;;;;;;5033848;28;20080;-75
2021/04/10 06:07:05;;;;;;;4.20;1.10;;;22.90;42.70;;;;;;5021710;28;20040;-72
2021/04/10 06:09:32;;;;;;;2.90;1.33;;;23.20;41.30;;;;;;5029529;28;20287;-71
2021/04/10 06:12:00;;;;;;;4.53;1.55;;;23.50;40.90;;;;;;5035641;28;20028;-72
2021/04/10 06:14:27;;;;;;;4.90;1.50;;;23.80;41.30;;;;;;5013687;28;20086;-72
2021/04/10 06:16:54;;;;;;;3.80;1.30;;;24.00;40.90;;;;;;5030895;28;20116;-69
2021/04/10 06:19:22;;;;;;;2.65;0.80;;;24.30;39.80;;;;;;5013201;28;20726;-72
2021/04/10 06:21:49;;;;;;;4.03;1.20;;;24.30;39.40;;;;;;5027433;28;20033;-72
2021/04/10 06:24:19;;;;;;;3.58;1.05;;;24.30;39.00;;;;;;5030678;28;20030;-71
2021/04/10 06:26:46;;;;;;;3.67;1.08;;;24.20;39.70;;;;;;5028503;28;20060;-72
2021/04/10 06:29:14;;;;;;;6.07;1.60;;;23.70;40.10;;;;;;5030421;28;20032;-71
2021/04/10 06:31:41;;;;;;;3.40;1.40;;;23.70;40.80;;;;;;5027966;28;20024;-74
2021/04/10 06:34:09;;;;;;;4.78;1.23;;;23.20;41.80;;;;;;5027712;28;20158;-72
2021/04/10 06:36:36;;;;;;;2.72;1.10;;;22.60;42.60;;;;;;5034455;28;20041;-71
2021/04/10 06:39:04;;;;;;;5.88;1.10;;;22.30;43.40;;;;;;5021129;28;20495;-70
2021/04/10 06:41:33;;;;;;;2.63;1.00;;;22.70;41.50;;;;;;5029073;28;20067;-71
2021/04/10 06:44:01;;;;;;;4.78;1.13;;;23.10;40.90;;;;;;5018954;28;20491;-72
2021/04/10 06:46:34;;;;;;;4.15;1.20;;;23.00;41.30;;;;;;5013240;28;20069;-69
2021/04/10 06:49:02;;;;;;;2.45;1.05;;;22.60;41.60;;;;;;5030189;28;20032;-72
2021/04/10 06:51:32;;;;;;;4.13;1.27;;;22.30;42.40;;;;;;5018697;28;20025;-69
2021/04/10 06:53:59;;;;;;;3.45;1.60;;;22.10;42.80;;;;;;5038231;28;20043;-68
2021/04/10 06:56:28;;;;;;;3.60;1.98;;;22.20;42.50;;;;;;5019028;28;20044;-69
2021/04/10 06:59:30;;;;;;;5.13;1.77;;;22.50;42.80;;;;;;5034538;28;20025;-70
2021/04/10 07:01:58;;;;;;;2.65;0.90;;;22.60;41.80;;;;;;5025190;28;20080;-70
2021/04/10 07:04:25;;;;;;;3.90;1.25;;;22.70;42.20;;;;;;5018970;28;20030;-69
2021/04/10 07:06:52;;;;;;;5.70;1.50;;;22.50;42.20;;;;;;5018320;28;20025;-70
2021/04/10 07:09:19;;;;;;;8.82;1.30;;;21.80;42.90;;;;;;5017797;28;20017;-68
2021/04/10 07:11:47;;;;;;;3.05;1.13;;;21.50;44.10;;;;;;4678613;28;10000102;-69
2021/04/10 07:14:14;;;;;;;3.55;1.17;;;21.60;43.60;;;;;;5022831;28;20029;-69
2021/04/10 07:16:41;;;;;;;5.68;1.27;;;21.60;43.30;;;;;;5026978;28;20076;-71
2021/04/10 07:19:12;;;;;;;3.60;1.13;;;21.70;43.30;;;;;;5024788;28;20025;-70
2021/04/10 07:21:39;;;;;;;3.47;0.90;;;21.50;43.60;;;;;;5010976;28;20098;-70
2021/04/10 07:24:07;;;;;;;6.47;1.73;;;21.30;43.80;;;;;;5026081;28;20311;-69
2021/04/10 07:26:58;;;;;;;4.55;1.45;;;21.20;43.90;;;;;;5023903;28;20127;-70
2021/04/10 07:29:39;;;;;;;4.35;1.50;;;20.90;44.90;;;;;;5004797;28;20090;-71
2021/04/10 07:32:34;;;;;;;24.00;3.40;;;20.60;45.90;;;;;;5026389;28;20025;-68
2021/04/10 07:35:12;;;;;;;18.02;2.28;;;20.30;47.10;;;;;;5019161;28;20487;-72
2021/04/10 07:37:39;;;;;;;8.73;1.58;;;20.10;47.50;;;;;;5023536;28;20048;-70
2021/04/10 07:40:14;;;;;;;9.40;2.13;;;19.80;48.20;;;;;;5024586;28;20530;-73
2021/04/10 07:42:45;;;;;;;9.15;1.50;;;19.60;48.10;;;;;;5029003;28;20394;-67
2021/04/10 07:45:35;;;;;;;10.18;2.88;;;19.50;48.20;;;;;;5030586;28;20370;-72
2021/04/10 07:48:05;;;;;;;14.25;4.00;;;19.40;48.60;;;;;;5005802;28;20644;-73
2021/04/10 07:50:33;;;;;;;10.88;3.10;;;19.30;49.30;;;;;;5020173;28;20021;-71
2021/04/10 07:53:19;;;;;;;15.98;5.45;;;19.10;49.70;;;;;;5026639;28;20391;-71
2021/04/10 07:55:46;;;;;;;8.80;1.83;;;19.10;50.20;;;;;;5019681;28;20044;-71
2021/04/10 07:58:35;;;;;;;7.50;1.38;;;18.90;50.10;;;;;;5019205;28;20021;-70
2021/04/10 08:01:14;;;;;;;6.60;1.20;;;18.80;50.10;;;;;;5015202;28;20080;-69
2021/04/10 08:03:47;;;;;;;9.45;1.92;;;18.80;50.10;;;;;;5022057;28;20491;-72
2021/04/10 08:06:16;;;;;;;16.42;2.60;;;18.70;50.00;;;;;;5020469;28;20346;-71
2021/04/10 08:08:47;;;;;;;7.78;1.95;;;18.60;50.50;;;;;;5022697;28;20226;-70
2021/04/10 08:11:15;;;;;;;7.47;1.27;;;18.60;51.00;;;;;;5024198;28;20021;-69
2021/04/10 08:13:58;;;;;;;2.72;1.20;;;18.50;51.20;;;;;;5019925;28;20044;-72
2021/04/10 08:16:26;;;;;;;3.55;1.30;;;18.50;51.00;;;;;;5019525;28;20483;-68
2021/04/10 08:18:58;;;;;;;7.68;2.42;;;18.40;51.20;;;;;;5020198;28;20281;-70
2021/04/10 08:21:31;;;;;;;9.75;2.10;;;18.30;51.20;;;;;;5020791;28;20093;-68
2021/04/10 08:23:59;;;;;;;4.15;1.10;;;18.30;51.30;;;;;;5021574;28;20029;-71
2021/04/10 08:26:26;;;;;;;3.42;1.20;;;18.10;52.30;;;;;;5019002;28;20483;-69
2021/04/10 08:28:53;;;;;;;3.33;1.27;;;18.10;51.30;;;;;;5020561;28;20022;-69
2021/04/10 08:31:21;;;;;;;14.68;1.80;;;18.10;51.70;;;;;;5015556;28;20036;-69
2021/04/10 08:33:48;;;;;;;5.82;1.58;;;18.10;51.80;;;;;;5003740;28;20056;-70
2021/04/10 08:36:18;;;;;;;4.43;1.40;;;18.00;52.00;;;;;;5019280;28;20174;-71
2021/04/10 08:38:48;;;;;;;3.60;1.10;;;18.00;51.50;;;;;;5020469;28;20022;-70
2021/04/10 08:41:19;;;;;;;6.57;1.25;;;18.00;51.50;;;;;;5019629;28;20365;-71
2021/04/10 08:43:50;;;;;;;4.15;1.65;;;18.00;51.50;;;;;;4991214;28;20824;-76
2021/04/10 08:46:20;;;;;;;3.35;1.17;;;17.90;52.00;;;;;;5007939;28;20041;-70
2021/04/10 08:48:58;;;;;;;5.63;1.17;;;17.90;51.80;;;;;;5028193;28;20143;-72
2021/04/10 08:51:27;;;;;;;4.75;0.80;;;17.90;51.60;;;;;;5017687;28;20053;-71
2021/04/10 08:53:56;;;;;;;6.03;1.60;;;17.80;52.10;;;;;;5004786;28;20021;-75
2021/04/10 08:56:25;;;;;;;4.05;1.50;;;17.70;52.50;;;;;;5003741;28;20022;-71
2021/04/10 08:58:52;;;;;;;6.32;1.80;;;17.70;52.50;;;;;;5019019;28;20048;-70
2021/04/10 09:01:25;;;;;;;6.90;1.75;;;17.70;52.80;;;;;;5020546;28;20104;-71
2021/04/10 09:03:54;;;;;;;7.97;1.63;;;17.60;52.00;;;;;;5010365;28;20488;-72
2021/04/10 09:06:30;;;;;;;6.65;1.65;;;17.70;51.80;;;;;;5016919;28;20021;-70
2021/04/10 09:09:17;;;;;;;18.92;2.33;;;17.70;51.80;;;;;;5013486;28;20545;-71
2021/04/10 09:11:45;;;;;;;15.00;2.45;;;17.60;52.20;;;;;;5000761;28;20516;-72
2021/04/10 09:14:35;;;;;;;9.07;2.22;;;17.50;51.90;;;;;;4995029;28;20047;-70
2021/04/10 09:17:03;;;;;;;5.38;1.60;;;17.50;52.90;;;;;;4998617;28;20037;-73
2021/04/10 09:19:30;;;;;;;8.65;1.67;;;17.50;52.50;;;;;;4999527;28;20030;-70
2021/04/10 09:22:00;;;;;;;15.35;2.40;;;17.40;52.80;;;;;;4992958;28;20127;-71
2021/04/10 09:24:44;;;;;;;12.85;2.60;;;17.30;52.80;;;;;;4989714;28;20046;-73
2021/04/10 09:27:28;;;;;;;18.45;2.58;;;17.30;53.40;;;;;;4995961;28;20596;-76
2021/04/10 09:29:58;;;;;;;10.57;2.72;;;17.20;53.30;;;;;;4998993;28;20136;-75
2021/04/10 09:32:39;;;;;;;13.05;2.08;;;17.10;53.60;;;;;;4992314;28;20026;-67
2021/04/10 09:35:26;;;;;;;9.73;1.85;;;17.10;54.00;;;;;;4983372;28;20544;-69
2021/04/10 09:37:54;;;;;;;3.83;1.13;;;17.00;54.30;;;;;;5006168;28;20092;-68
2021/04/10 09:40:24;;;;;;;7.85;1.70;;;16.90;54.40;;;;;;5002068;28;20136;-69
2021/04/10 09:43:03;;;;;;;10.27;2.20;;;17.00;54.40;;;;;;4986293;28;20052;-68
2021/04/10 09:45:31;;;;;;;7.75;1.73;;;16.90;53.80;;;;;;5002481;28;20036;-69
2021/04/10 09:48:00;;;;;;;8.00;1.65;;;16.90;53.90;;;;;;4998689;28;20026;-70
2021/04/10 09:50:43;;;;;;;11.40;1.60;;;17.00;53.80;;;;;;5006669;28;20048;-74
2021/04/10 09:53:22;;;;;;;5.97;1.40;;;16.90;53.90;;;;;;4996090;28;20022;-69
2021/04/10 09:56:09;;;;;;;7.43;2.13;;;16.90;53.80;;;;;;4982716;28;20042;-70
2021/04/10 09:58:45;;;;;;;5.25;1.08;;;16.90;53.70;;;;;;4982919;28;20591;-70
2021/04/10 10:01:17;;;;;;;6.70;1.63;;;16.90;53.20;;;;;;4971987;28;20033;-70
2021/04/10 10:03:46;;;;;;;6.00;1.25;;;16.90;53.50;;;;;;4999033;28;20121;-71
2021/04/10 10:06:33;;;;;;;11.38;1.40;;;16.90;53.80;;;;;;5004137;28;20320;-69
2021/04/10 10:09:03;;;;;;;6.35;1.40;;;16.70;54.50;;;;;;4976035;28;20376;-69
2021/04/10 10:11:33;;;;;;;5.80;1.92;;;16.60;54.80;;;;;;5006754;28;20053;-71
2021/04/10 10:14:03;;;;;;;5.95;1.60;;;16.60;55.20;;;;;;5006779;28;20484;-70
2021/04/10 10:16:34;;;;;;;11.93;2.55;;;16.40;55.70;;;;;;5007187;28;20113;-72
2021/04/10 10:19:05;;;;;;;5.85;1.40;;;16.30;55.70;;;;;;5006856;28;20084;-69
2021/04/10 10:21:33;;;;;;;6.47;1.58;;;16.20;55.70;;;;;;5016882;28;20033;-70
2021/04/10 10:24:00;;;;;;;2.28;1.20;;;16.20;56.30;;;;;;5004525;28;20060;-69
2021/04/10 10:26:41;;;;;;;3.97;1.25;;;16.10;56.40;;;;;;5006262;28;20109;-70
2021/04/10 10:29:14;;;;;;;4.90;1.45;;;16.00;57.00;;;;;;5009752;28;20018;-70
2021/04/10 10:31:46;;;;;;;5.50;1.40;;;15.90;57.40;;;;;;4991206;28;20496;-73
2021/04/10 10:34:23;;;;;;;14.38;7.22;;;15.80;57.30;;;;;;5008533;28;20034;-69
2021/04/10 10:36:51;;;;;;;3.70;1.73;;;15.70;57.70;;;;;;4999531;28;21149;-71
2021/04/10 10:39:25;;;;;;;6.88;3.00;;;15.80;57.00;;;;;;4993728;28;20378;-69
2021/04/10 10:41:52;;;;;;;7.45;1.85;;;15.80;57.20;;;;;;5004393;28;20460;-69
2021/04/10 10:44:24;;;;;;;7.00;2.05;;;15.70;57.70;;;;;;5011754;28;20049;-66
2021/04/10 10:47:18;;;;;;;7.80;1.92;;;15.60;58.40;;;;;;5014135;28;20018;-69
2021/04/10 10:49:52;;;;;;;6.68;1.50;;;15.40;58.80;;;;;;5034553;28;20010;-68
2021/04/10 10:52:19;;;;;;;6.90;1.65;;;15.30;59.40;;;;;;5006575;28;20152;-69
2021/04/10 10:54:50;;;;;;;6.85;1.73;;;15.30;59.50;;;;;;5020298;28;20043;-70
2021/04/10 10:58:16;;;;;;;10.25;1.80;;;15.30;59.00;;;;;;5019097;28;20024;-69
2021/04/10 11:04:33;;;;;;;10.52;2.45;;;15.50;57.70;;;;;;5026041;28;20046;-72
2021/04/10 11:07:01;;;;;;;12.75;2.30;;;15.50;57.40;;;;;;4994942;28;20037;-68
2021/04/10 11:09:31;;;;;;;9.75;1.90;;;15.50;57.60;;;;;;5002194;28;20041;-69
2021/04/10 11:12:08;;;;;;;16.90;3.20;;;15.40;58.10;;;;;;5002331;28;20199;-68
2021/04/10 11:14:40;;;;;;;14.93;2.80;;;15.30;58.10;;;;;;5001331;28;20037;-70
2021/04/10 11:17:07;;;;;;;19.98;3.80;;;15.10;59.00;;;;;;4994688;28;20092;-68
2021/04/10 11:19:36;;;;;;;17.95;2.83;;;15.00;59.00;;;;;;5004112;28;20098;-67
2021/04/10 11:22:05;;;;;;;12.18;2.72;;;14.90;60.30;;;;;;5008531;28;20054;-67
2021/04/10 11:24:48;;;;;;;13.25;2.58;;;14.70;61.60;;;;;;4975844;28;20141;-68
2021/04/10 11:27:20;;;;;;;9.25;2.50;;;14.50;62.60;;;;;;4997349;28;20022;-68
2021/04/10 11:30:04;;;;;;;12.60;2.70;;;14.40;64.10;;;;;;4984743;28;20503;-67
2021/04/10 11:32:37;;;;;;;10.77;2.88;;;14.20;63.30;;;;;;5007382;28;20123;-67
2021/04/10 11:35:07;;;;;;;11.13;2.60;;;14.10;65.30;;;;;;4991651;28;20076;-65
2021/04/10 11:37:51;;;;;;;9.15;2.50;;;14.00;65.60;;;;;;5002389;28;20030;-68
2021/04/10 11:40:22;;;;;;;6.88;1.90;;;13.90;66.50;;;;;;5009183;28;20030;-69
2021/04/10 11:43:00;;;;;;;7.15;2.47;;;13.80;66.30;;;;;;5005917;28;20030;-69
2021/04/10 11:45:34;;;;;;;27.67;16.95;;;13.70;67.00;;;;;;4980548;28;20033;-68
2021/04/10 11:48:08;;;;;;;5.90;2.20;;;13.70;66.60;;;;;;5004499;28;20324;-68
2021/04/10 11:50:51;;;;;;;9.13;2.67;;;13.70;66.00;;;;;;5010508;28;20496;-68
2021/04/10 11:53:26;;;;;;;6.90;2.10;;;13.70;65.50;;;;;;5006245;28;20386;-69
2021/04/10 11:55:57;;;;;;;6.90;1.85;;;13.70;66.50;;;;;;5006542;28;20048;-69
2021/04/10 11:58:37;;;;;;;5.82;2.40;;;13.60;67.40;;;;;;5005171;28;20042;-69
2021/04/10 12:01:12;;;;;;;5.32;2.03;;;13.50;67.80;;;;;;4998351;28;20120;-67
2021/04/10 12:03:52;;;;;;;7.95;2.85;;;13.50;68.20;;;;;;5005010;28;20205;-67
2021/04/10 12:06:29;;;;;;;5.25;2.13;;;13.30;68.40;;;;;;5009689;28;20038;-67
2021/04/10 12:08:59;;;;;;;6.65;2.63;;;13.30;70.40;;;;;;5007877;28;20074;-65
2021/04/10 12:11:27;;;;;;;6.47;2.05;;;13.20;70.10;;;;;;5008744;28;20183;-69
2021/04/10 12:13:54;;;;;;;6.55;2.28;;;13.00;71.40;;;;;;5011111;28;20503;-66
2021/04/10 12:16:25;;;;;;;3.42;2.38;;;13.00;71.50;;;;;;5004593;28;20030;-68
2021/04/10 12:18:55;;;;;;;7.80;2.42;;;13.00;69.60;;;;;;4992900;28;20699;-66
2021/04/10 12:21:25;;;;;;;3.92;2.47;;;13.00;69.60;;;;;;5003216;28;20022;-66
2021/04/10 12:23:56;;;;;;;6.22;2.15;;;13.00;71.10;;;;;;5007324;28;20116;-65
2021/04/10 12:26:23;;;;;;;5.57;2.35;;;12.90;70.50;;;;;;5007163;28;20531;-65
2021/04/10 12:28:51;;;;;;;7.75;2.65;;;12.90;69.10;;;;;;4994835;28;20038;-65
2021/04/10 12:31:18;;;;;;;6.60;2.45;;;12.90;69.60;;;;;;5012758;28;20475;-65
2021/04/10 12:33:45;;;;;;;6.93;2.50;;;12.80;69.60;;;;;;5006359;28;20072;-65
2021/04/10 12:36:13;;;;;;;4.47;2.08;;;12.90;69.40;;;;;;5004966;28;20594;-64
2021/04/10 12:38:40;;;;;;;4.55;2.00;;;12.90;69.10;;;;;;4989483;28;20025;-64
2021/04/10 12:41:08;;;;;;;4.25;2.22;;;12.90;71.10;;;;;;5004751;28;20026;-65
2021/04/10 12:43:35;;;;;;;7.22;2.42;;;12.80;70.80;;;;;;4994185;28;20025;-64
2021/04/10 12:46:03;;;;;;;6.93;3.08;;;12.70;70.50;;;;;;5002189;28;20079;-65
2021/04/10 12:48:30;;;;;;;5.63;2.47;;;12.70;70.10;;;;;;5002313;28;20022;-65
2021/04/10 12:51:01;;;;;;;6.97;2.83;;;12.70;69.30;;;;;;5014255;28;20029;-69
2021/04/10 12:53:29;;;;;;;9.40;2.97;;;12.70;70.30;;;;;;4986134;28;20075;-65
2021/04/10 12:56:00;;;;;;;4.20;2.58;;;12.70;70.90;;;;;;4988762;28;20030;-66
2021/04/10 12:58:30;;;;;;;6.50;2.75;;;12.70;69.00;;;;;;5002825;28;20100;-67
2021/04/10 13:01:00;;;;;;;4.35;2.78;;;12.70;68.80;;;;;;5010745;28;20539;-67
2021/04/10 13:03:30;;;;;;;6.68;3.03;;;12.70;69.70;;;;;;5004397;28;20108;-68
2021/04/10 13:06:01;;;;;;;5.70;3.13;;;12.70;70.30;;;;;;5006653;28;20041;-68
2021/04/10 13:08:31;;;;;;;8.75;3.55;;;12.70;71.20;;;;;;4988343;28;20045;-66
2021/04/10 13:10:58;;;;;;;7.53;3.28;;;12.60;71.60;;;;;;5010653;28;20516;-67
2021/04/10 13:13:26;;;;;;;7.63;3.50;;;12.50;72.20;;;;;;4998043;28;20076;-66
2021/04/10 13:15:53;;;;;;;5.45;3.55;;;12.50;71.20;;;;;;4997962;28;20068;-68
2021/04/10 13:18:20;;;;;;;4.65;3.38;;;12.50;71.80;;;;;;5011227;28;20072;-67
2021/04/10 13:20:47;;;;;;;7.53;3.00;;;12.50;71.50;;;;;;5005363;28;20025;-68
2021/04/10 13:23:18;;;;;;;6.80;2.92;;;12.40;72.00;;;;;;5007412;28;20038;-68
2021/04/10 13:25:45;;;;;;;5.20;2.75;;;12.40;73.70;;;;;;5008650;28;20025;-67
2021/04/10 13:28:13;;;;;;;5.97;2.72;;;12.30;74.10;;;;;;4999495;28;20252;-68
2021/04/10 13:30:40;;;;;;;5.30;2.80;;;12.20;74.80;;;;;;5009436;28;20029;-69
2021/04/10 13:33:07;;;;;;;6.53;3.10;;;12.20;74.40;;;;;;5004860;28;20432;-68
2021/04/10 13:35:35;;;;;;;6.30;2.92;;;12.20;74.70;;;;;;5012020;28;20283;-68
2021/04/10 13:38:02;;;;;;;8.35;3.13;;;12.20;73.50;;;;;;5008254;28;20034;-66
2021/04/10 13:40:29;;;;;;;5.38;3.20;;;12.20;73.60;;;;;;5008448;28;20026;-67
2021/04/10 13:42:56;;;;;;;3.70;2.60;;;12.20;72.00;;;;;;5007487;28;20404;-67
2021/04/10 13:45:24;;;;;;;4.70;2.83;;;12.20;72.20;;;;;;5004387;28;20053;-69
2021/04/10 13:47:51;;;;;;;6.30;3.22;;;12.20;73.50;;;;;;5005128;28;20065;-67
2021/04/10 13:50:18;;;;;;;6.07;3.33;;;12.10;74.20;;;;;;5003982;28;20028;-67
2021/04/10 13:52:46;;;;;;;7.57;3.17;;;12.00;73.70;;;;;;5007796;28;20555;-68
2021/04/10 13:55:14;;;;;;;8.35;3.55;;;12.00;73.70;;;;;;5010379;28;20095;-67
2021/04/10 13:57:41;;;;;;;6.00;3.03;;;11.90;74.10;;;;;;5010327;28;20045;-67
2021/04/10 14:00:12;;;;;;;8.70;3.80;;;11.90;74.50;;;;;;5011739;28;20030;-68
2021/04/10 14:02:39;;;;;;;4.53;2.92;;;11.80;74.50;;;;;;5012716;28;20450;-67
2021/04/10 14:05:12;;;;;;;6.57;3.58;;;11.80;75.40;;;;;;5012634;28;20033;-68
2021/04/10 14:07:42;;;;;;;5.85;3.20;;;11.80;74.80;;;;;;5006591;28;20046;-67
2021/04/10 14:10:17;;;;;;;9.65;3.75;;;11.80;74.60;;;;;;5002875;28;20022;-67
2021/04/10 14:12:44;;;;;;;5.57;3.15;;;11.80;74.30;;;;;;5007350;28;20030;-68
2021/04/10 14:15:26;;;;;;;7.30;3.55;;;11.80;74.00;;;;;;5009532;28;20404;-67
2021/04/10 14:17:54;;;;;;;5.75;3.33;;;11.70;74.90;;;;;;4991382;28;20045;-68
2021/04/10 14:20:24;;;;;;;4.65;3.17;;;11.80;75.90;;;;;;4994015;28;20053;-68
2021/04/10 14:22:51;;;;;;;6.85;3.05;;;11.70;76.00;;;;;;4992783;28;20044;-66
2021/04/10 14:25:19;;;;;;;4.80;2.80;;;11.70;75.80;;;;;;5004399;28;20759;-68
2021/04/10 14:27:46;;;;;;;9.32;3.30;;;11.60;75.80;;;;;;5014039;28;20041;-67
2021/04/10 14:30:25;;;;;;;5.93;3.00;;;11.50;76.50;;;;;;5003939;28;20039;-68
2021/04/10 14:32:53;;;;;;;5.35;3.20;;;11.50;76.70;;;;;;4999917;28;20128;-68
2021/04/10 14:35:22;;;;;;;5.80;3.50;;;11.60;76.10;;;;;;4999852;28;20022;-66
2021/04/10 14:37:49;;;;;;;7.63;3.42;;;11.50;76.10;;;;;;5004366;28;20034;-68
2021/04/10 14:40:17;;;;;;;9.10;3.42;;;11.50;76.60;;;;;;5014249;28;21436;-67
2021/04/10 14:42:45;;;;;;;6.30;2.53;;;11.50;76.10;;;;;;5001592;28;20029;-67
2021/04/10 14:45:12;;;;;;;6.95;2.97;;;11.50;74.80;;;;;;5003999;28;20161;-65
2021/04/10 14:47:40;;;;;;;4.07;2.70;;;11.60;75.00;;;;;;5024268;23;20065;-66
2021/04/10 14:50:08;;;;;;;5.57;2.67;;;11.60;74.50;;;;;;5016096;28;20392;-66
2021/04/10 14:52:36;;;;;;;5.35;2.50;;;11.70;74.50;;;;;;5049160;28;20086;-68
2021/04/10 14:55:04;;;;;;;5.25;2.70;;;11.70;74.20;;;;;;5036652;28;20460;-65